Time;durP1;ratioP1;P1;durP2;ratioP2;P2;SDS_P1;SDS_P2;PMS_P1;PMS_P2;Temp;Humidity;BMP_temperature;BMP_pressure;BME280_temperature;BME280_humidity;BME280_pressure;Samples;Min_cycle;Max_cycle;Signal;HPM_P1;HPM_P2
2022/01/22 00:00:56;;;;;;;21.98;3.50;;;6.50;99.90;;;;;;5073623;28;20112;-71
2022/01/22 00:03:22;;;;;;;16.98;2.88;;;6.50;99.90;;;;;;5076994;28;20040;-71
2022/01/22 00:05:48;;;;;;;13.38;3.08;;;6.50;99.90;;;;;;5077447;28;20385;-71
2022/01/22 00:08:14;;;;;;;21.80;3.28;;;6.50;99.90;;;;;;5079996;28;20076;-71
2022/01/22 00:10:44;;;;;;;18.63;3.17;;;6.40;99.90;;;;;;5080816;28;20048;-71
2022/01/22 00:15:47;;;;;;;14.82;3.08;;;6.40;99.90;;;;;;5079426;28;20035;-71
2022/01/22 00:18:13;;;;;;;8.38;2.20;;;6.90;99.90;;;;;;5081501;28;20400;-71
2022/01/22 00:20:38;;;;;;;11.55;2.47;;;6.40;99.90;;;;;;5077626;28;20040;-71
2022/01/22 00:23:05;;;;;;;13.02;2.33;;;6.50;99.90;;;;;;5065929;28;20044;-71
2022/01/22 00:25:31;;;;;;;9.63;2.15;;;6.50;99.90;;;;;;5078021;28;20040;-71
2022/01/22 00:27:58;;;;;;;10.13;2.03;;;6.50;99.90;;;;;;5080246;28;20063;-71
2022/01/22 00:30:25;;;;;;;11.93;3.22;;;6.50;99.90;;;;;;5079818;28;20036;-71
2022/01/22 00:32:52;;;;;;;12.63;1.98;;;7.20;99.90;;;;;;5088211;28;20040;-72
2022/01/22 00:35:20;;;;;;;7.25;1.85;;;6.50;99.90;;;;;;5083750;28;20120;-71
2022/01/22 00:37:47;;;;;;;10.23;2.25;;;6.50;99.90;;;;;;5087095;28;20180;-71
2022/01/22 00:40:15;;;;;;;10.85;1.92;;;6.50;99.90;;;;;;5084129;28;20471;-71
2022/01/22 00:42:42;;;;;;;11.27;1.80;;;6.50;99.90;;;;;;5089521;28;20079;-71
2022/01/22 00:45:10;;;;;;;12.55;1.85;;;6.50;99.90;;;;;;5082076;28;20100;-72
2022/01/22 00:47:35;;;;;;;8.98;1.85;;;6.50;99.90;;;;;;5083700;28;20055;-71
2022/01/22 00:50:02;;;;;;;11.43;2.67;;;6.50;99.90;;;;;;5079441;28;20047;-71
2022/01/22 00:52:28;;;;;;;8.32;1.90;;;6.50;99.90;;;;;;5086418;28;20381;-71
2022/01/22 00:54:53;;;;;;;10.00;1.77;;;6.50;99.90;;;;;;5071843;28;20039;-71
2022/01/22 00:57:19;;;;;;;9.55;2.30;;;6.50;99.90;;;;;;5084232;28;20095;-71
2022/01/22 00:59:45;;;;;;;9.55;2.00;;;6.70;99.90;;;;;;5088127;28;20157;-71
2022/01/22 01:02:11;;;;;;;13.57;2.50;;;6.50;99.90;;;;;;5084837;28;20425;-71
2022/01/22 01:04:37;;;;;;;14.85;2.17;;;6.80;99.90;;;;;;5079583;28;20509;-71
2022/01/22 01:07:04;;;;;;;12.45;2.90;;;6.50;99.90;;;;;;5068987;28;20051;-71
2022/01/22 01:09:30;;;;;;;14.88;2.42;;;6.50;99.90;;;;;;5086368;28;20069;-71
2022/01/22 01:12:01;;;;;;;13.93;2.45;;;6.50;99.90;;;;;;5071985;28;20062;-71
2022/01/22 01:14:37;;;;;;;9.32;1.70;;;6.50;99.90;;;;;;5092340;28;20148;-71
2022/01/22 01:33:18;;;;;;;10.02;1.75;;;6.60;99.90;;;;;;5083891;28;20063;-71
2022/01/22 01:35:44;;;;;;;6.35;2.05;;;6.50;99.90;;;;;;5092244;28;20053;-71
2022/01/22 01:38:09;;;;;;;7.82;1.52;;;6.60;99.90;;;;;;5089142;28;20115;-71
2022/01/22 01:40:40;;;;;;;7.57;2.15;;;6.60;99.90;;;;;;5090602;28;20063;-71
2022/01/22 01:43:13;;;;;;;12.38;2.20;;;6.60;99.90;;;;;;5075372;28;20047;-71
2022/01/22 01:45:39;;;;;;;11.13;1.80;;;6.60;99.90;;;;;;5091096;28;20043;-71
2022/01/22 01:48:12;;;;;;;17.05;2.83;;;6.60;99.90;;;;;;5088732;28;20407;-71
2022/01/22 01:50:39;;;;;;;10.43;1.90;;;7.30;99.90;;;;;;5088784;28;20083;-71
2022/01/22 01:53:19;;;;;;;10.23;1.98;;;6.60;99.90;;;;;;5080360;28;20107;-71
2022/01/22 01:56:01;;;;;;;14.10;2.70;;;6.60;99.90;;;;;;5058983;28;20035;-71
2022/01/22 01:58:30;;;;;;;16.23;2.60;;;6.80;99.90;;;;;;5084474;28;20612;-71
2022/01/22 02:01:00;;;;;;;12.00;2.25;;;6.60;99.90;;;;;;5086467;28;20487;-71
2022/01/22 02:03:26;;;;;;;7.40;2.53;;;6.60;99.90;;;;;;5085534;28;20039;-71
2022/01/22 02:05:52;;;;;;;5.32;1.90;;;6.80;99.90;;;;;;5072152;28;20442;-71
2022/01/22 02:08:19;;;;;;;8.60;2.10;;;6.60;99.90;;;;;;5089567;28;20032;-71
2022/01/22 02:10:54;;;;;;;7.50;2.10;;;6.60;99.90;;;;;;5089872;28;20096;-71
2022/01/22 02:13:45;;;;;;;8.52;1.60;;;6.60;99.90;;;;;;5060895;28;20105;-71
2022/01/22 02:24:46;;;;;;;7.63;1.48;;;6.60;99.90;;;;;;5088291;28;20054;-71
2022/01/22 02:27:14;;;;;;;7.05;1.15;;;6.60;99.90;;;;;;5083325;28;20043;-71
2022/01/22 02:29:39;;;;;;;3.45;1.30;;;6.60;99.90;;;;;;5086570;28;20031;-71
2022/01/22 02:34:43;;;;;;;4.32;1.00;;;6.60;99.90;;;;;;5085103;28;20062;-71
2022/01/22 02:37:14;;;;;;;6.75;1.77;;;6.60;99.90;;;;;;5084526;28;20111;-71
2022/01/22 02:39:46;;;;;;;6.10;1.77;;;6.70;99.90;;;;;;5089472;28;20113;-71
2022/01/22 02:42:13;;;;;;;3.30;1.30;;;6.60;99.90;;;;;;5079509;28;20062;-71
2022/01/22 02:44:46;;;;;;;7.68;1.20;;;6.50;99.90;;;;;;5082475;27;22127;-71
2022/01/22 02:47:14;;;;;;;10.30;2.08;;;7.00;99.90;;;;;;5069924;28;20090;-71
2022/01/22 02:49:40;;;;;;;8.77;1.67;;;6.50;99.90;;;;;;5085283;28;20040;-71
2022/01/22 02:52:08;;;;;;;5.88;1.70;;;6.80;99.90;;;;;;5087390;28;20044;-71
2022/01/22 02:54:35;;;;;;;8.48;1.98;;;7.00;99.90;;;;;;5082578;28;20055;-71
2022/01/22 02:57:01;;;;;;;9.60;1.70;;;6.50;99.90;;;;;;5108302;28;20516;-71
2022/01/22 02:59:27;;;;;;;5.70;2.05;;;6.50;99.90;;;;;;5086398;28;20194;-71
2022/01/22 03:01:53;;;;;;;12.57;1.83;;;6.50;99.90;;;;;;5091357;28;20054;-71
2022/01/22 03:04:19;;;;;;;7.82;2.10;;;6.50;99.90;;;;;;5083121;28;20115;-71
2022/01/22 03:06:47;;;;;;;8.48;2.00;;;6.50;99.90;;;;;;5085786;28;20044;-71
2022/01/22 03:09:15;;;;;;;11.43;2.50;;;6.50;99.90;;;;;;5087749;28;20040;-71
2022/01/22 03:11:58;;;;;;;9.15;2.00;;;6.50;99.90;;;;;;5082115;28;20047;-71
2022/01/22 03:17:51;;;;;;;9.35;2.33;;;6.50;99.90;;;;;;5087014;28;20278;-71
2022/01/22 03:27:48;;;;;;;12.57;2.33;;;6.40;99.90;;;;;;5081571;28;20063;-71
2022/01/22 03:30:13;;;;;;;5.22;1.67;;;7.10;99.90;;;;;;5081013;28;20047;-72
2022/01/22 03:32:46;;;;;;;5.72;1.60;;;6.50;99.90;;;;;;5086528;28;20032;-71
2022/01/22 03:35:24;;;;;;;13.05;2.42;;;6.50;99.90;;;;;;5097540;28;20078;-71
2022/01/22 03:37:53;;;;;;;10.02;1.52;;;6.40;99.90;;;;;;5067304;28;20039;-71
2022/01/22 03:40:23;;;;;;;7.05;1.70;;;7.10;99.90;;;;;;5083229;28;20032;-72
2022/01/22 03:42:50;;;;;;;10.32;1.95;;;6.40;99.90;;;;;;5062332;28;20035;-71
2022/01/22 03:45:17;;;;;;;7.20;1.73;;;7.20;99.90;;;;;;5078635;28;20455;-71
2022/01/22 03:47:43;;;;;;;10.73;3.05;;;6.50;99.90;;;;;;5080828;28;20043;-71
2022/01/22 03:50:12;;;;;;;7.97;1.63;;;6.40;99.90;;;;;;5083445;28;20138;-71
2022/01/22 03:52:38;;;;;;;7.65;1.48;;;6.80;99.90;;;;;;5080059;28;20116;-71
2022/01/22 03:55:06;;;;;;;11.70;1.75;;;6.40;99.90;;;;;;5078149;28;20055;-71
2022/01/22 03:57:32;;;;;;;8.52;2.85;;;6.40;99.90;;;;;;5081164;28;20047;-71
2022/01/22 03:59:58;;;;;;;6.18;1.75;;;6.40;99.90;;;;;;5082806;28;20031;-71
2022/01/22 04:05:04;;;;;;;6.85;1.77;;;6.40;99.90;;;;;;5082759;28;20047;-72
2022/01/22 04:10:14;;;;;;;5.90;2.00;;;6.40;99.90;;;;;;5083181;28;20483;-71
2022/01/22 04:15:11;;;;;;;10.50;2.22;;;6.40;99.90;;;;;;5088919;28;20044;-71
2022/01/22 04:25:49;;;;;;;6.85;1.65;;;6.40;99.90;;;;;;5085713;28;20089;-71
2022/01/22 04:28:14;;;;;;;8.32;1.30;;;6.40;99.90;;;;;;5082612;28;20048;-71
2022/01/22 04:30:40;;;;;;;4.68;1.25;;;6.40;99.90;;;;;;5081781;28;20391;-71
2022/01/22 04:33:06;;;;;;;6.25;1.58;;;6.40;99.90;;;;;;5082204;28;20116;-71
2022/01/22 04:35:32;;;;;;;8.85;1.80;;;6.40;99.90;;;;;;5068132;28;20109;-72
2022/01/22 04:37:58;;;;;;;7.03;1.70;;;6.40;99.90;;;;;;5084283;28;20376;-72
2022/01/22 04:40:25;;;;;;;4.15;1.60;;;6.40;99.90;;;;;;5083466;28;20032;-72
2022/01/22 04:42:50;;;;;;;10.40;2.60;;;6.40;99.90;;;;;;5080724;28;20035;-72
2022/01/22 04:48:13;;;;;;;6.25;1.38;;;6.40;99.90;;;;;;5088720;28;20280;-71
2022/01/22 04:56:07;;;;;;;6.25;1.45;;;6.30;99.90;;;;;;5088991;28;20046;-71
2022/01/22 04:58:33;;;;;;;4.05;1.02;;;6.30;99.90;;;;;;5084802;28;20024;-71
2022/01/22 05:00:59;;;;;;;10.00;1.95;;;6.30;99.90;;;;;;5084066;28;20073;-71
2022/01/22 05:03:25;;;;;;;7.00;2.17;;;6.30;99.90;;;;;;5080118;28;20051;-72
2022/01/22 05:05:51;;;;;;;7.65;1.55;;;6.30;99.90;;;;;;5079170;28;20036;-71
2022/01/22 05:08:16;;;;;;;4.70;1.20;;;6.30;99.90;;;;;;5072414;28;20058;-72
2022/01/22 05:10:42;;;;;;;4.32;1.10;;;6.30;99.90;;;;;;5086340;28;20032;-71
2022/01/22 05:13:08;;;;;;;6.15;1.77;;;6.30;99.90;;;;;;5069307;28;20083;-71
2022/01/22 05:15:33;;;;;;;6.32;1.70;;;7.20;99.90;;;;;;5087759;28;20062;-71
2022/01/22 05:18:00;;;;;;;5.15;1.30;;;6.30;99.90;;;;;;5083006;28;20036;-71
2022/01/22 05:20:34;;;;;;;5.53;0.98;;;6.30;99.90;;;;;;5066981;28;20032;-71
2022/01/22 05:23:12;;;;;;;5.25;1.40;;;6.30;99.90;;;;;;5089474;28;20067;-72
2022/01/22 05:25:44;;;;;;;4.93;1.70;;;6.30;99.90;;;;;;5090339;28;20075;-71
2022/01/22 05:38:21;;;;;;;7.72;2.33;;;6.40;99.90;;;;;;5086881;28;20042;-71
2022/01/22 05:40:47;;;;;;;3.70;1.20;;;6.30;99.90;;;;;;5076429;28;20039;-71
2022/01/22 05:43:13;;;;;;;7.85;1.13;;;6.30;99.90;;;;;;5067519;28;20119;-71
2022/01/22 05:45:38;;;;;;;7.28;1.50;;;6.30;99.90;;;;;;5070664;28;20039;-71
2022/01/22 05:48:04;;;;;;;3.88;1.00;;;6.30;99.90;;;;;;5094203;28;20403;-70
2022/01/22 05:50:34;;;;;;;5.38;1.17;;;6.30;99.90;;;;;;5086954;28;20047;-72
2022/01/22 05:53:13;;;;;;;10.27;1.83;;;6.50;99.90;;;;;;5076979;28;20042;-72
2022/01/22 05:59:35;;;;;;;4.60;1.50;;;6.30;99.90;;;;;;5089573;28;20388;-71
2022/01/22 06:01:14;;;;;;;7.13;1.30;;;6.30;99.90;;;;;;5070176;28;20120;-72
2022/01/22 06:03:41;;;;;;;6.20;1.77;;;6.30;99.90;;;;;;5083328;28;20043;-71
2022/01/22 06:06:07;;;;;;;11.90;2.58;;;6.30;99.90;;;;;;5084938;28;20111;-71
2022/01/22 06:08:38;;;;;;;6.53;1.45;;;6.30;99.90;;;;;;5088604;28;20130;-72
2022/01/22 06:11:09;;;;;;;8.32;1.80;;;6.30;99.90;;;;;;5082212;28;20459;-72
2022/01/22 06:13:44;;;;;;;7.05;1.40;;;6.30;99.90;;;;;;5086592;28;20074;-71
2022/01/22 06:16:21;;;;;;;12.05;1.80;;;6.60;99.90;;;;;;5090747;28;20617;-71
2022/01/22 06:18:47;;;;;;;11.50;1.75;;;6.30;99.90;;;;;;5089446;28;20035;-72
2022/01/22 06:21:13;;;;;;;8.00;1.90;;;7.00;99.90;;;;;;5091180;28;20159;-71
2022/01/22 06:23:40;;;;;;;10.35;1.88;;;6.30;99.90;;;;;;5041570;28;20130;-71
2022/01/22 06:26:07;;;;;;;8.20;1.55;;;6.30;99.90;;;;;;5058378;28;20095;-71
2022/01/22 06:28:34;;;;;;;7.07;2.35;;;6.30;99.90;;;;;;5085630;28;20388;-71
2022/01/22 06:31:00;;;;;;;15.95;2.55;;;6.30;99.90;;;;;;5071549;28;20126;-71
2022/01/22 06:33:26;;;;;;;12.15;2.03;;;6.30;99.90;;;;;;5084421;28;20092;-71
2022/01/22 06:35:53;;;;;;;12.52;2.42;;;6.30;99.90;;;;;;5075772;28;20067;-71
2022/01/22 06:38:19;;;;;;;9.55;2.20;;;6.30;99.90;;;;;;5078554;28;20039;-72
2022/01/22 06:43:31;;;;;;;10.60;1.90;;;6.30;99.90;;;;;;5084351;28;20047;-72
2022/01/22 06:45:57;;;;;;;12.55;2.53;;;6.30;99.90;;;;;;5081998;28;20399;-71
2022/01/22 06:48:23;;;;;;;14.20;2.70;;;6.30;99.90;;;;;;5069859;28;21958;-71
2022/01/22 06:50:49;;;;;;;9.43;2.30;;;6.80;99.90;;;;;;5089527;28;20251;-71
2022/01/22 06:53:15;;;;;;;11.45;2.17;;;6.30;99.90;;;;;;5086005;28;20127;-71
2022/01/22 06:55:45;;;;;;;7.90;2.60;;;6.30;99.90;;;;;;5083795;28;20040;-72
2022/01/22 06:58:11;;;;;;;8.80;1.73;;;6.30;99.90;;;;;;5083704;28;20063;-71
2022/01/22 07:00:37;;;;;;;10.88;2.20;;;6.30;99.90;;;;;;5068650;28;20108;-72
2022/01/22 07:03:04;;;;;;;10.65;1.63;;;6.30;99.90;;;;;;5086323;28;20043;-72
2022/01/22 07:05:30;;;;;;;11.10;2.58;;;6.40;99.90;;;;;;5088179;28;20047;-72
2022/01/22 07:07:56;;;;;;;8.02;1.90;;;6.40;99.90;;;;;;5086137;28;20048;-71
2022/01/22 07:10:23;;;;;;;5.53;1.38;;;6.30;99.90;;;;;;5079067;28;20118;-71
2022/01/22 07:12:49;;;;;;;9.35;1.80;;;6.30;99.90;;;;;;5086891;28;20051;-71
2022/01/22 07:15:14;;;;;;;7.80;1.52;;;6.30;99.90;;;;;;5078523;28;20085;-72
2022/01/22 07:17:40;;;;;;;6.80;1.75;;;6.30;99.90;;;;;;5064828;28;20478;-71
2022/01/22 07:20:15;;;;;;;5.30;1.80;;;6.30;99.90;;;;;;5079076;28;20047;-72
2022/01/22 07:22:54;;;;;;;10.05;2.47;;;6.30;99.90;;;;;;5084740;28;20461;-72
2022/01/22 07:25:20;;;;;;;6.18;1.60;;;6.30;99.90;;;;;;5084386;28;20032;-71
2022/01/22 07:27:46;;;;;;;5.40;1.80;;;6.30;99.90;;;;;;5083046;28;20039;-71
2022/01/22 07:30:12;;;;;;;3.97;1.30;;;6.20;99.90;;;;;;5062841;28;20146;-72
2022/01/22 07:32:42;;;;;;;5.03;1.30;;;6.30;99.90;;;;;;5075054;28;20036;-72
2022/01/22 07:35:09;;;;;;;3.72;1.33;;;7.10;99.90;;;;;;5066054;28;20031;-71
2022/01/22 07:37:38;;;;;;;5.40;1.48;;;6.20;99.90;;;;;;5089079;28;20043;-72
2022/01/22 07:40:08;;;;;;;4.25;1.10;;;6.30;99.90;;;;;;5084940;28;20035;-72
2022/01/22 07:42:34;;;;;;;3.55;0.98;;;6.30;99.90;;;;;;5087984;28;20484;-71
2022/01/22 07:45:01;;;;;;;5.05;1.40;;;6.20;99.90;;;;;;5074307;28;20036;-71
2022/01/22 07:47:27;;;;;;;4.60;1.17;;;6.20;99.90;;;;;;5079196;28;20476;-71
2022/01/22 07:49:52;;;;;;;6.82;1.52;;;4.10;99.90;;;;;;5070675;28;20104;-70
2022/01/22 07:52:18;;;;;;;4.78;1.60;;;6.20;99.90;;;;;;5083019;28;20380;-71
2022/01/22 07:54:44;;;;;;;7.60;1.60;;;6.30;99.90;;;;;;5088330;28;20028;-71
2022/01/22 07:57:10;;;;;;;6.25;2.17;;;6.20;99.90;;;;;;5063056;28;20036;-72
2022/01/22 07:59:36;;;;;;;6.30;1.80;;;6.20;99.90;;;;;;5082435;28;20047;-70
2022/01/22 08:02:03;;;;;;;4.70;1.55;;;6.20;99.90;;;;;;5083438;28;20051;-71
2022/01/22 08:04:29;;;;;;;8.85;1.98;;;6.20;99.90;;;;;;5081910;28;20035;-71
2022/01/22 08:06:57;;;;;;;7.10;2.60;;;6.20;99.90;;;;;;5086561;28;20048;-71
2022/01/22 08:09:23;;;;;;;8.00;2.03;;;6.20;99.90;;;;;;5083410;28;20036;-71
2022/01/22 08:11:49;;;;;;;7.80;1.73;;;6.20;99.90;;;;;;5067394;28;20040;-71
2022/01/22 08:14:16;;;;;;;5.93;2.00;;;6.20;99.90;;;;;;5083330;28;20122;-71
2022/01/22 08:16:44;;;;;;;5.68;1.58;;;6.20;99.90;;;;;;5070187;28;20066;-71
2022/01/22 08:19:10;;;;;;;6.43;1.42;;;6.20;99.90;;;;;;5083993;28;20462;-71
2022/01/22 08:21:35;;;;;;;4.80;1.05;;;6.20;99.90;;;;;;5080625;28;20494;-71
2022/01/22 08:24:01;;;;;;;5.90;1.80;;;6.20;99.90;;;;;;5086973;28;20039;-72
2022/01/22 08:26:32;;;;;;;5.38;1.50;;;6.20;99.90;;;;;;5084217;28;20453;-71
2022/01/22 08:29:00;;;;;;;3.55;1.33;;;6.40;99.90;;;;;;5071072;28;20522;-71
2022/01/22 08:36:39;;;;;;;4.45;1.27;;;6.20;99.90;;;;;;5083724;28;20128;-71
2022/01/22 08:39:05;;;;;;;4.20;1.50;;;6.30;99.90;;;;;;5069841;28;20511;-71
2022/01/22 08:41:31;;;;;;;2.28;1.00;;;6.30;99.90;;;;;;5084655;28;20042;-71
2022/01/22 08:43:59;;;;;;;2.67;1.00;;;6.30;99.90;;;;;;5080961;28;20047;-71
2022/01/22 08:46:25;;;;;;;6.25;1.30;;;6.30;99.90;;;;;;5084766;28;20072;-71
2022/01/22 08:48:51;;;;;;;3.72;1.20;;;6.30;99.90;;;;;;5103848;28;20047;-71
2022/01/22 08:51:17;;;;;;;5.35;1.48;;;6.30;99.90;;;;;;5072317;28;20082;-71
2022/01/22 08:53:43;;;;;;;3.30;1.23;;;6.30;99.90;;;;;;5087708;28;20052;-71
2022/01/22 08:56:09;;;;;;;8.77;1.30;;;6.30;99.90;;;;;;5088354;28;20035;-71
2022/01/22 08:58:36;;;;;;;8.57;1.50;;;6.40;99.90;;;;;;5084026;28;20362;-71
2022/01/22 09:01:02;;;;;;;5.15;1.40;;;6.30;99.90;;;;;;5090945;28;20039;-71
2022/01/22 09:03:29;;;;;;;6.18;1.38;;;6.30;99.90;;;;;;5082508;28;20043;-71
2022/01/22 09:05:55;;;;;;;5.57;1.85;;;6.30;99.90;;;;;;5073542;28;20075;-71
2022/01/22 09:08:23;;;;;;;5.18;1.45;;;6.30;99.90;;;;;;5088275;28;20535;-71
2022/01/22 09:10:49;;;;;;;8.00;1.60;;;6.30;99.90;;;;;;5083677;28;20036;-70
2022/01/22 09:13:14;;;;;;;3.67;1.35;;;6.40;99.90;;;;;;5061650;28;20058;-71
2022/01/22 09:15:40;;;;;;;5.20;1.33;;;6.40;99.90;;;;;;5089377;28;20107;-71
2022/01/22 09:18:07;;;;;;;3.75;1.10;;;6.40;99.90;;;;;;5080064;28;20504;-71
2022/01/22 09:23:03;;;;;;;7.22;1.65;;;6.40;99.90;;;;;;5082222;28;20046;-70
2022/01/22 09:25:28;;;;;;;6.55;1.25;;;6.50;99.90;;;;;;5084257;28;20047;-71
2022/01/22 09:27:54;;;;;;;6.55;1.38;;;6.50;99.90;;;;;;5087310;28;20032;-71
2022/01/22 09:30:20;;;;;;;8.00;1.40;;;6.50;99.90;;;;;;5087934;28;20048;-71
2022/01/22 09:32:46;;;;;;;7.18;1.25;;;6.60;99.90;;;;;;5085399;28;20442;-71
2022/01/22 09:35:12;;;;;;;4.07;1.05;;;6.50;99.90;;;;;;5084114;28;20028;-71
2022/01/22 09:37:38;;;;;;;9.18;1.50;;;6.60;99.90;;;;;;5084398;28;20036;-72
2022/01/22 09:40:05;;;;;;;15.40;1.85;;;6.60;99.90;;;;;;5085964;28;20050;-71
2022/01/22 09:42:31;;;;;;;5.57;1.35;;;6.60;99.90;;;;;;5083498;28;20081;-71
2022/01/22 09:44:56;;;;;;;5.15;1.50;;;6.70;99.90;;;;;;5088532;28;20074;-71
2022/01/22 09:47:22;;;;;;;10.38;1.85;;;7.40;99.90;;;;;;5083278;28;20491;-71
2022/01/22 09:49:48;;;;;;;10.18;1.73;;;6.70;99.90;;;;;;5084427;28;20058;-71
2022/01/22 09:52:14;;;;;;;8.02;2.28;;;6.60;99.90;;;;;;5087520;28;20039;-71
2022/01/22 09:54:40;;;;;;;9.82;1.88;;;6.70;99.90;;;;;;5085405;28;20036;-71
2022/01/22 09:57:08;;;;;;;6.40;1.77;;;7.20;99.90;;;;;;5081795;28;20043;-71
2022/01/22 09:59:34;;;;;;;9.23;1.98;;;6.60;99.90;;;;;;5085248;28;20444;-71
2022/01/22 10:02:21;;;;;;;9.07;1.90;;;7.10;99.90;;;;;;5071265;28;20124;-71
2022/01/22 10:04:49;;;;;;;9.90;2.30;;;6.60;99.90;;;;;;5082126;28;20044;-71
2022/01/22 10:07:24;;;;;;;8.18;2.22;;;6.60;99.90;;;;;;5089195;28;20042;-72
2022/01/22 10:10:07;;;;;;;9.02;1.92;;;6.60;99.90;;;;;;5085782;28;20084;-71
2022/01/22 10:12:50;;;;;;;9.55;2.10;;;6.60;99.90;;;;;;5080650;28;20123;-71
2022/01/22 10:15:20;;;;;;;9.57;2.08;;;6.60;99.90;;;;;;5082093;28;20322;-72
2022/01/22 10:17:48;;;;;;;12.77;2.35;;;6.60;99.90;;;;;;5081998;28;20407;-71
2022/01/22 10:20:38;;;;;;;10.55;2.25;;;6.60;99.90;;;;;;5084445;28;20043;-71
2022/01/22 10:23:19;;;;;;;7.45;2.30;;;6.60;99.90;;;;;;5082139;28;20540;-72
2022/01/22 10:25:56;;;;;;;7.63;2.45;;;6.80;99.90;;;;;;5086281;28;20130;-72
2022/01/22 10:28:25;;;;;;;6.78;2.45;;;6.70;99.90;;;;;;5083229;28;20120;-71
2022/01/22 10:31:06;;;;;;;11.15;2.70;;;6.70;99.90;;;;;;5071574;28;20047;-72
2022/01/22 10:36:20;;;;;;;6.57;2.22;;;6.70;99.90;;;;;;5077199;28;20051;-72
2022/01/22 10:38:52;;;;;;;8.27;2.63;;;6.80;99.90;;;;;;5089542;28;20303;-71
2022/01/22 10:41:41;;;;;;;4.65;2.55;;;6.80;99.90;;;;;;5079297;28;20043;-71
2022/01/22 10:44:14;;;;;;;6.28;2.28;;;6.80;99.90;;;;;;5064063;28;20051;-72
2022/01/22 10:47:02;;;;;;;8.20;2.53;;;6.80;99.90;;;;;;5079266;28;20531;-71
2022/01/22 10:49:28;;;;;;;8.73;2.20;;;6.90;99.90;;;;;;5080666;28;20040;-71
2022/01/22 10:52:02;;;;;;;4.25;1.80;;;6.90;99.90;;;;;;5086098;28;20047;-72
2022/01/22 10:54:33;;;;;;;4.40;1.92;;;7.00;99.90;;;;;;5086223;28;20038;-71
2022/01/22 10:57:15;;;;;;;6.57;2.05;;;7.00;99.90;;;;;;5082893;28;20474;-71
2022/01/22 11:00:18;;;;;;;6.80;1.83;;;7.10;99.90;;;;;;5084459;28;20040;-71
2022/01/22 11:02:44;;;;;;;8.75;2.03;;;7.10;99.90;;;;;;5083819;28;20044;-72
2022/01/22 11:05:32;;;;;;;6.68;1.90;;;7.00;99.90;;;;;;5087495;28;20039;-71
2022/01/22 11:08:14;;;;;;;6.55;1.60;;;7.10;99.90;;;;;;5098608;28;20104;-72
2022/01/22 11:10:45;;;;;;;9.10;1.65;;;7.10;99.90;;;;;;5086414;28;20096;-70
2022/01/22 11:13:11;;;;;;;9.32;2.10;;;7.00;99.90;;;;;;5084205;28;20140;-71
2022/01/22 11:15:39;;;;;;;5.55;1.65;;;7.00;99.90;;;;;;5080029;28;20048;-70
2022/01/22 11:18:07;;;;;;;6.90;1.77;;;7.00;99.90;;;;;;5087359;28;20085;-70
2022/01/22 11:20:32;;;;;;;9.63;1.80;;;7.00;99.90;;;;;;5066086;28;20039;-71
2022/01/22 11:22:59;;;;;;;4.95;1.77;;;7.00;99.90;;;;;;5070977;28;20067;-71
2022/01/22 11:25:26;;;;;;;7.85;2.20;;;7.30;99.90;;;;;;5083068;28;20043;-71
2022/01/22 11:27:52;;;;;;;8.90;2.28;;;7.10;99.90;;;;;;5085572;28;20046;-73
2022/01/22 11:30:25;;;;;;;14.10;2.50;;;6.90;99.90;;;;;;5101671;28;20028;-70
2022/01/22 11:32:54;;;;;;;9.07;2.80;;;6.90;99.90;;;;;;5076507;28;20090;-71
2022/01/22 11:35:25;;;;;;;7.47;2.63;;;6.90;99.90;;;;;;5085481;28;20869;-71
2022/01/22 11:38:05;;;;;;;9.88;2.92;;;6.90;99.90;;;;;;5081689;28;20040;-71
2022/01/22 11:40:33;;;;;;;7.65;3.00;;;7.30;99.90;;;;;;5077823;28;20102;-71
2022/01/22 11:43:09;;;;;;;6.25;2.88;;;6.90;99.90;;;;;;5084407;28;20044;-71
2022/01/22 11:45:47;;;;;;;11.93;2.85;;;6.90;99.90;;;;;;5067702;28;20047;-72
2022/01/22 11:48:30;;;;;;;6.68;2.70;;;6.90;99.90;;;;;;5088916;28;20054;-71
2022/01/22 11:51:23;;;;;;;10.30;2.97;;;6.90;99.90;;;;;;5079949;28;20048;-71
2022/01/22 11:53:56;;;;;;;8.73;3.08;;;6.90;99.90;;;;;;5081105;28;20044;-71
2022/01/22 11:56:26;;;;;;;12.05;3.50;;;6.90;99.90;;;;;;5070330;28;20364;-72
2022/01/22 11:58:59;;;;;;;13.90;3.45;;;6.90;99.90;;;;;;5084919;28;20411;-71
2022/01/22 12:01:45;;;;;;;15.30;3.33;;;6.90;99.90;;;;;;5101149;28;20403;-71
2022/01/22 12:04:16;;;;;;;9.77;3.92;;;6.90;99.90;;;;;;5084981;28;20101;-71
2022/01/22 12:07:00;;;;;;;12.73;3.72;;;6.90;99.90;;;;;;5081877;28;20118;-71
2022/01/22 12:09:30;;;;;;;18.25;3.70;;;6.90;99.90;;;;;;5084792;28;20545;-71
2022/01/22 12:14:50;;;;;;;14.73;4.63;;;6.90;99.90;;;;;;5078922;28;20112;-72
2022/01/22 12:17:29;;;;;;;14.45;4.45;;;6.90;99.90;;;;;;5083647;28;20059;-71
2022/01/22 12:22:35;;;;;;;12.70;4.35;;;6.90;99.90;;;;;;5079834;28;20055;-71
2022/01/22 12:25:07;;;;;;;15.75;4.65;;;6.90;99.90;;;;;;5082156;28;20424;-72
2022/01/22 12:27:53;;;;;;;17.83;6.75;;;6.90;99.90;;;;;;5081706;28;20043;-71
2022/01/22 12:30:42;;;;;;;12.82;4.47;;;6.80;99.90;;;;;;5089145;28;20407;-71
2022/01/22 12:33:32;;;;;;;16.58;4.50;;;6.80;99.90;;;;;;5083669;28;20040;-72
2022/01/22 12:36:00;;;;;;;13.27;4.75;;;6.90;99.90;;;;;;5085637;28;20387;-71
2022/01/22 12:38:43;;;;;;;15.55;4.85;;;6.90;99.90;;;;;;5083977;28;20126;-71
2022/01/22 12:44:31;;;;;;;17.80;5.68;;;6.90;99.90;;;;;;5078166;28;20143;-71
2022/01/22 12:47:04;;;;;;;17.70;5.00;;;6.90;99.90;;;;;;5081745;28;20040;-71
2022/01/22 12:49:34;;;;;;;15.80;4.82;;;6.90;99.90;;;;;;5085102;28;20441;-71
2022/01/22 12:52:03;;;;;;;10.32;4.70;;;6.90;99.90;;;;;;5087700;28;20399;-71
2022/01/22 12:54:36;;;;;;;16.10;5.60;;;6.90;99.90;;;;;;5086625;28;20047;-71
2022/01/22 12:57:14;;;;;;;14.38;4.90;;;6.90;99.90;;;;;;5088019;28;20035;-72
2022/01/22 12:59:50;;;;;;;13.40;4.80;;;6.90;99.90;;;;;;5093387;28;20071;-71
2022/01/22 13:02:16;;;;;;;18.42;4.63;;;6.90;99.90;;;;;;5090643;28;20102;-71
2022/01/22 13:04:56;;;;;;;14.95;5.45;;;6.90;99.90;;;;;;5091483;28;20206;-71
2022/01/22 13:07:24;;;;;;;11.90;4.45;;;6.90;99.90;;;;;;5091095;28;20186;-71
2022/01/22 13:09:54;;;;;;;14.10;4.78;;;7.90;99.90;;;;;;5085910;28;20085;-71
2022/01/22 13:12:20;;;;;;;17.17;5.00;;;6.90;99.90;;;;;;5074363;28;20031;-71
2022/01/22 13:14:46;;;;;;;14.60;4.20;;;6.80;99.90;;;;;;5074552;28;20035;-71
2022/01/22 13:17:13;;;;;;;8.90;4.00;;;7.60;99.90;;;;;;5088084;28;20146;-71
2022/01/22 13:19:40;;;;;;;14.80;3.85;;;7.10;99.90;;;;;;5086357;28;20055;-71
2022/01/22 13:22:06;;;;;;;19.55;4.50;;;6.80;99.90;;;;;;5091283;28;20051;-71
2022/01/22 13:24:35;;;;;;;12.35;3.80;;;7.00;99.90;;;;;;5089826;28;20042;-71
2022/01/22 13:29:37;;;;;;;20.48;4.82;;;6.80;99.90;;;;;;5104202;28;20105;-71
2022/01/22 13:32:10;;;;;;;15.07;3.67;;;6.80;99.90;;;;;;5087203;28;20028;-71
2022/01/22 13:49:08;;;;;;;22.50;4.50;;;7.00;99.90;;;;;;5090309;28;20104;-71
2022/01/22 13:51:34;;;;;;;17.67;4.38;;;7.00;99.90;;;;;;5086415;28;20039;-71
2022/01/22 13:54:02;;;;;;;13.40;4.60;;;7.00;99.90;;;;;;5089069;28;20063;-71
2022/01/22 13:56:48;;;;;;;13.18;4.78;;;7.00;99.90;;;;;;5074492;28;20040;-71
2022/01/22 13:59:16;;;;;;;10.48;4.32;;;7.00;99.90;;;;;;5078565;28;20050;-71
2022/01/22 14:01:52;;;;;;;15.00;4.53;;;7.00;99.90;;;;;;5074424;28;20040;-71
2022/01/22 14:04:19;;;;;;;15.88;4.68;;;7.00;99.90;;;;;;5075852;28;20512;-71
2022/01/22 14:06:47;;;;;;;17.00;4.32;;;7.00;99.90;;;;;;5073006;28;20051;-71
2022/01/22 14:09:20;;;;;;;12.20;3.38;;;7.20;99.90;;;;;;5074538;28;20051;-71
2022/01/22 14:12:05;;;;;;;8.43;2.15;;;6.90;99.90;;;;;;5077885;28;20158;-71
2022/01/22 14:14:56;;;;;;;9.02;2.22;;;6.90;99.90;;;;;;5083525;28;20136;-71
2022/01/22 14:17:25;;;;;;;6.28;2.00;;;6.80;99.90;;;;;;5090579;28;20110;-71
2022/01/22 14:20:22;;;;;;;7.45;2.78;;;6.80;99.90;;;;;;5088832;28;20487;-71
2022/01/22 14:23:04;;;;;;;9.73;2.05;;;6.80;99.90;;;;;;5089221;28;20055;-72
2022/01/22 14:25:32;;;;;;;7.55;2.20;;;6.70;99.90;;;;;;5088554;28;20079;-72
2022/01/22 14:27:59;;;;;;;11.52;2.33;;;6.70;99.90;;;;;;5079027;28;20040;-71
2022/01/22 14:30:39;;;;;;;9.52;2.53;;;6.70;99.90;;;;;;5084293;28;20036;-70
2022/01/22 14:33:05;;;;;;;10.07;3.00;;;6.70;99.90;;;;;;5076560;28;20523;-70
2022/01/22 14:35:33;;;;;;;11.50;3.08;;;6.70;99.90;;;;;;5083921;28;20496;-70
2022/01/22 14:38:40;;;;;;;10.20;2.72;;;6.70;99.90;;;;;;5078342;28;20039;-71
2022/01/22 14:44:33;;;;;;;10.60;2.97;;;6.70;99.90;;;;;;5084118;28;20123;-71
2022/01/22 14:47:16;;;;;;;9.52;2.95;;;6.70;99.90;;;;;;5084458;28;20085;-70
2022/01/22 14:49:44;;;;;;;11.80;3.75;;;6.60;99.90;;;;;;5081299;28;20050;-71
2022/01/22 14:52:12;;;;;;;8.95;2.40;;;7.00;99.90;;;;;;5081884;28;20040;-71
2022/01/22 14:54:42;;;;;;;10.57;2.47;;;6.60;99.90;;;;;;5072870;28;20098;-71
2022/01/22 14:57:09;;;;;;;6.10;2.42;;;7.00;99.90;;;;;;5083035;28;20522;-71
2022/01/22 14:59:37;;;;;;;7.97;2.50;;;6.50;99.90;;;;;;5081320;28;20040;-71
2022/01/22 15:02:04;;;;;;;7.68;2.20;;;6.50;99.90;;;;;;5080272;28;20112;-71
2022/01/22 15:04:30;;;;;;;7.78;2.30;;;6.50;99.90;;;;;;5082126;28;20047;-71
2022/01/22 15:06:58;;;;;;;8.95;3.03;;;6.50;99.90;;;;;;5083285;28;20036;-71